createdAt,value
2017-07-31T00:02:16.714Z,10.67
2017-07-31T00:04:44.559Z,7.53
2017-07-31T00:07:12.384Z,4.50
2017-07-31T00:09:40.201Z,4.30
2017-07-31T00:12:08.015Z,7.00
2017-07-31T00:14:35.832Z,8.10
2017-07-31T00:17:03.607Z,5.90
2017-07-31T00:19:31.455Z,5.13
2017-07-31T00:21:59.227Z,7.53
2017-07-31T00:24:27.013Z,6.10
2017-07-31T00:26:54.858Z,4.63
2017-07-31T00:29:22.646Z,4.33
2017-07-31T00:31:50.455Z,4.73
2017-07-31T00:34:18.204Z,4.10
2017-07-31T00:36:46.065Z,6.93
2017-07-31T00:39:13.853Z,4.20
2017-07-31T00:41:41.624Z,6.20
2017-07-31T00:44:09.460Z,5.73
2017-07-31T00:46:37.225Z,9.67
2017-07-31T00:49:05.036Z,4.00
2017-07-31T00:51:32.829Z,3.83
2017-07-31T00:54:00.700Z,3.97
2017-07-31T00:56:28.493Z,3.90
2017-07-31T00:58:56.254Z,8.93
2017-07-31T01:01:24.059Z,5.83
2017-07-31T01:03:51.824Z,4.73
2017-07-31T01:06:19.645Z,3.93
2017-07-31T01:08:47.405Z,4.40
2017-07-31T01:11:15.225Z,6.83
2017-07-31T01:13:43.004Z,11.90
2017-07-31T01:16:10.779Z,4.10
2017-07-31T01:18:38.594Z,6.43
2017-07-31T01:21:06.372Z,8.50
2017-07-31T01:23:34.181Z,3.80
2017-07-31T01:26:01.967Z,4.47
2017-07-31T01:28:29.769Z,7.70
2017-07-31T01:30:57.568Z,3.60
2017-07-31T01:33:25.385Z,3.97
2017-07-31T01:35:53.174Z,4.30
2017-07-31T01:38:21.026Z,3.93
2017-07-31T01:40:48.862Z,4.50
2017-07-31T01:43:16.664Z,5.93
2017-07-31T01:45:44.475Z,3.93
2017-07-31T01:48:12.264Z,5.70
2017-07-31T01:50:40.292Z,4.17
2017-07-31T01:53:08.069Z,3.73
2017-07-31T01:55:35.933Z,3.47
2017-07-31T01:58:03.738Z,9.07
2017-07-31T02:00:31.522Z,5.33
2017-07-31T02:02:59.364Z,4.33
2017-07-31T02:05:27.138Z,5.50
2017-07-31T02:07:54.983Z,6.70
2017-07-31T02:10:22.759Z,6.60
2017-07-31T02:12:50.575Z,5.57
2017-07-31T02:15:18.355Z,5.40
2017-07-31T02:17:46.119Z,5.53
2017-07-31T02:20:13.938Z,8.50
2017-07-31T02:22:41.727Z,8.87
2017-07-31T02:25:09.536Z,6.90
2017-07-31T02:27:37.328Z,8.47
2017-07-31T02:30:05.152Z,6.40
2017-07-31T02:32:32.939Z,5.77
2017-07-31T02:35:00.714Z,5.17
2017-07-31T02:37:28.580Z,5.20
2017-07-31T02:39:56.380Z,12.97
2017-07-31T02:42:24.174Z,5.77
2017-07-31T02:44:51.936Z,6.33
2017-07-31T02:47:19.739Z,5.17
2017-07-31T02:49:47.504Z,4.63
2017-07-31T02:52:15.304Z,5.90
2017-07-31T02:54:43.124Z,5.23
2017-07-31T02:57:10.907Z,5.67
2017-07-31T02:59:38.720Z,5.97
2017-07-31T03:02:06.487Z,7.13
2017-07-31T03:04:34.289Z,7.80
2017-07-31T03:07:02.058Z,6.77
2017-07-31T03:09:29.745Z,10.00
2017-07-31T03:11:57.393Z,5.53
2017-07-31T03:14:25.037Z,5.43
2017-07-31T03:16:52.724Z,5.83
2017-07-31T03:19:20.375Z,5.83
2017-07-31T03:21:48.059Z,5.33
2017-07-31T03:24:15.694Z,5.90
2017-07-31T03:26:43.447Z,6.73
2017-07-31T03:29:11.102Z,7.00
2017-07-31T03:31:38.758Z,8.20
2017-07-31T03:34:06.442Z,6.00
2017-07-31T03:36:34.097Z,5.10
2017-07-31T03:39:01.850Z,6.50
2017-07-31T03:41:29.489Z,6.00
2017-07-31T03:43:57.178Z,6.50
2017-07-31T03:46:24.802Z,5.50
2017-07-31T03:48:52.523Z,6.37
2017-07-31T03:51:20.176Z,7.57
2017-07-31T03:53:47.828Z,10.13
2017-07-31T03:56:15.512Z,10.07
2017-07-31T03:58:43.159Z,10.37
2017-07-31T04:01:10.842Z,6.07
2017-07-31T04:03:38.490Z,6.37
2017-07-31T04:06:06.186Z,8.80
2017-07-31T04:08:33.830Z,14.83
2017-07-31T04:11:01.514Z,7.43
2017-07-31T04:13:29.159Z,6.70
2017-07-31T04:15:56.800Z,6.93
2017-07-31T04:18:24.508Z,17.77
2017-07-31T04:20:52.144Z,9.30
2017-07-31T04:23:19.834Z,10.27
2017-07-31T04:25:47.473Z,8.77
2017-07-31T04:28:15.183Z,10.70
2017-07-31T04:30:42.822Z,11.03
2017-07-31T04:33:10.530Z,12.90
2017-07-31T04:35:38.207Z,11.23
2017-07-31T04:38:05.901Z,9.87
2017-07-31T04:40:33.606Z,9.17
2017-07-31T04:43:01.253Z,11.80
2017-07-31T04:45:28.973Z,15.17
2017-07-31T04:47:56.604Z,9.00
2017-07-31T04:50:24.291Z,8.07
2017-07-31T04:52:51.934Z,8.57
2017-07-31T04:55:19.636Z,8.27
2017-07-31T04:57:47.289Z,10.13
2017-07-31T05:00:14.992Z,11.13
2017-07-31T05:02:42.632Z,9.00
2017-07-31T05:05:10.290Z,9.80
2017-07-31T05:07:37.983Z,8.57
2017-07-31T05:10:05.658Z,9.10
2017-07-31T05:12:33.342Z,9.13
2017-07-31T05:15:00.975Z,9.10
2017-07-31T05:17:28.694Z,8.13
2017-07-31T05:19:56.345Z,8.33
2017-07-31T05:22:24.070Z,7.87
2017-07-31T05:24:51.724Z,7.80
2017-07-31T05:27:19.385Z,10.97
2017-07-31T05:29:47.080Z,8.70
2017-07-31T05:32:14.722Z,12.07
2017-07-31T05:34:42.419Z,10.10
2017-07-31T05:37:10.111Z,7.87
2017-07-31T05:39:37.807Z,10.70
2017-07-31T05:42:05.442Z,13.30
2017-07-31T05:44:33.132Z,12.17
2017-07-31T05:47:00.803Z,11.30
2017-07-31T05:49:28.461Z,6.63
2017-07-31T05:51:56.172Z,9.23
2017-07-31T05:54:23.810Z,8.13
2017-07-31T05:56:51.487Z,5.37
2017-07-31T05:59:19.160Z,11.73
2017-07-31T06:01:46.879Z,8.03
2017-07-31T06:04:14.557Z,6.23
2017-07-31T06:06:42.275Z,5.53
2017-07-31T06:09:09.939Z,6.00
2017-07-31T06:11:37.593Z,12.37
2017-07-31T06:14:05.316Z,6.47
2017-07-31T06:16:32.974Z,4.63
2017-07-31T06:19:00.703Z,4.70
2017-07-31T06:21:28.346Z,5.10
2017-07-31T06:23:55.974Z,4.53
2017-07-31T06:26:23.620Z,4.50
2017-07-31T06:28:51.310Z,4.73
2017-07-31T06:31:18.961Z,5.33
2017-07-31T06:33:46.669Z,4.03
2017-07-31T06:36:14.330Z,4.87
2017-07-31T06:38:42.039Z,7.10
2017-07-31T06:41:09.755Z,4.10
2017-07-31T06:43:37.417Z,3.73
2017-07-31T06:46:05.121Z,3.10
2017-07-31T06:48:32.779Z,3.50
2017-07-31T06:51:00.490Z,3.13
2017-07-31T06:53:28.154Z,4.03
2017-07-31T06:55:55.910Z,3.43
2017-07-31T06:58:23.566Z,2.87
2017-07-31T07:00:51.206Z,4.40
2017-07-31T07:03:18.926Z,2.97
2017-07-31T07:05:46.579Z,2.20
2017-07-31T07:08:14.279Z,3.00
2017-07-31T07:10:41.941Z,2.60
2017-07-31T07:13:09.655Z,3.13
2017-07-31T07:15:37.314Z,2.40
2017-07-31T07:18:05.036Z,2.60
2017-07-31T07:20:32.687Z,2.77
2017-07-31T07:23:00.452Z,2.20
2017-07-31T07:25:28.106Z,2.27
2017-07-31T07:27:55.775Z,3.47
2017-07-31T07:30:23.501Z,4.70
2017-07-31T07:32:51.165Z,2.10
2017-07-31T07:35:18.897Z,2.60
2017-07-31T07:37:46.593Z,1.80
2017-07-31T07:40:14.326Z,2.23
2017-07-31T07:42:41.981Z,1.70
2017-07-31T07:45:09.758Z,4.80
2017-07-31T07:47:37.449Z,2.10
2017-07-31T07:50:05.089Z,1.67
2017-07-31T07:52:32.805Z,1.63
2017-07-31T07:55:00.449Z,1.60
2017-07-31T07:57:28.208Z,1.63
2017-07-31T07:59:55.873Z,3.17
2017-07-31T08:02:23.595Z,2.40
2017-07-31T08:04:51.263Z,1.63
2017-07-31T08:07:18.960Z,2.33
2017-07-31T08:09:46.617Z,1.60
2017-07-31T08:12:14.282Z,1.50
2017-07-31T08:14:41.965Z,1.60
2017-07-31T08:17:09.647Z,1.57
2017-07-31T08:19:37.341Z,1.30
2017-07-31T08:22:05.003Z,2.40
2017-07-31T08:24:32.725Z,1.10
2017-07-31T08:27:00.401Z,2.53
2017-07-31T08:29:28.112Z,1.60
2017-07-31T08:31:55.766Z,1.50
2017-07-31T08:34:23.426Z,1.40
2017-07-31T08:36:51.127Z,1.33
2017-07-31T08:39:18.816Z,1.97
2017-07-31T08:41:46.506Z,4.70
2017-07-31T08:44:14.159Z,2.20
2017-07-31T08:46:41.878Z,2.13
2017-07-31T08:49:09.548Z,1.80
2017-07-31T08:51:37.251Z,1.70
2017-07-31T08:54:04.909Z,1.43
2017-07-31T08:56:32.580Z,1.30
2017-07-31T08:59:00.285Z,1.80
2017-07-31T09:01:27.952Z,3.77
2017-07-31T09:03:55.651Z,1.70
2017-07-31T09:06:23.301Z,1.97
2017-07-31T09:08:51.026Z,2.40
2017-07-31T09:11:18.704Z,2.20
2017-07-31T09:13:46.487Z,1.33
2017-07-31T09:16:14.126Z,1.70
2017-07-31T09:18:41.776Z,3.70
2017-07-31T09:21:09.481Z,1.63
2017-07-31T09:23:37.139Z,2.13
2017-07-31T09:26:04.897Z,3.97
2017-07-31T09:28:32.587Z,1.40
2017-07-31T09:31:00.317Z,1.67
2017-07-31T09:33:27.954Z,1.90
2017-07-31T09:35:55.686Z,1.60
2017-07-31T09:38:23.394Z,2.40
2017-07-31T09:40:51.100Z,1.30
2017-07-31T09:43:18.742Z,1.70
2017-07-31T09:45:46.415Z,2.17
2017-07-31T09:48:14.118Z,1.30
2017-07-31T09:50:41.764Z,2.00
2017-07-31T09:53:09.460Z,2.73
2017-07-31T09:55:37.122Z,3.10
2017-07-31T09:58:04.810Z,4.67
2017-07-31T10:00:32.457Z,1.37
2017-07-31T10:03:00.165Z,1.23
2017-07-31T10:05:27.796Z,1.30
2017-07-31T10:07:55.448Z,2.40
2017-07-31T10:10:23.174Z,1.90
2017-07-31T10:12:50.831Z,3.23
2017-07-31T10:15:18.544Z,1.20
2017-07-31T10:17:46.230Z,1.83
2017-07-31T10:20:13.900Z,2.80
2017-07-31T10:22:41.544Z,1.47
2017-07-31T10:25:09.276Z,1.30
2017-07-31T10:27:36.940Z,3.10
2017-07-31T10:30:04.592Z,2.20
2017-07-31T10:32:32.328Z,1.30
2017-07-31T10:34:59.963Z,1.93
2017-07-31T10:37:27.690Z,1.53
2017-07-31T10:39:55.343Z,1.40
2017-07-31T10:42:23.027Z,1.13
2017-07-31T10:44:50.684Z,1.50
2017-07-31T10:47:18.399Z,5.13
2017-07-31T10:49:46.055Z,1.30
2017-07-31T10:52:13.704Z,1.20
2017-07-31T10:54:41.422Z,1.60
2017-07-31T10:57:09.073Z,2.40
2017-07-31T10:59:36.764Z,2.10
2017-07-31T11:02:04.445Z,1.30
2017-07-31T11:04:32.210Z,1.43
2017-07-31T11:06:59.853Z,1.40
2017-07-31T11:09:27.562Z,2.10
2017-07-31T11:11:55.226Z,1.40
2017-07-31T11:14:22.879Z,1.47
2017-07-31T11:16:50.571Z,2.60
2017-07-31T11:19:18.242Z,1.30
2017-07-31T11:21:45.927Z,2.73
2017-07-31T11:24:13.588Z,1.50
2017-07-31T11:26:41.270Z,1.50
2017-07-31T11:29:08.963Z,3.70
2017-07-31T11:31:36.689Z,1.93
2017-07-31T11:34:04.325Z,1.63
2017-07-31T11:36:31.987Z,1.40
2017-07-31T11:38:59.735Z,2.30
2017-07-31T11:41:27.393Z,1.20
2017-07-31T11:43:55.126Z,1.90
2017-07-31T11:46:22.795Z,4.83
2017-07-31T11:48:50.490Z,1.47
2017-07-31T11:51:18.202Z,1.60
2017-07-31T11:53:45.922Z,2.30
2017-07-31T11:56:13.577Z,1.30
2017-07-31T11:58:41.239Z,1.50
2017-07-31T12:01:08.937Z,1.50
2017-07-31T12:03:36.585Z,2.90
2017-07-31T12:06:04.323Z,1.60
2017-07-31T12:08:31.980Z,2.10
2017-07-31T12:10:59.701Z,1.70
2017-07-31T12:13:27.366Z,1.30
2017-07-31T12:15:55.077Z,1.50
2017-07-31T12:18:22.719Z,2.23
2017-07-31T12:20:50.390Z,1.73
2017-07-31T12:23:18.115Z,1.60
2017-07-31T12:25:45.768Z,3.20
2017-07-31T12:28:13.505Z,2.03
2017-07-31T12:30:41.143Z,1.50
2017-07-31T12:33:08.846Z,1.50
2017-07-31T12:35:36.497Z,2.70
2017-07-31T12:38:04.276Z,1.70
2017-07-31T12:40:31.926Z,2.73
2017-07-31T12:42:59.590Z,1.67
2017-07-31T12:45:27.294Z,1.90
2017-07-31T12:47:55.012Z,1.63
2017-07-31T12:50:22.736Z,2.23
2017-07-31T12:52:50.417Z,1.87
2017-07-31T12:55:18.167Z,1.33
2017-07-31T12:57:45.824Z,1.70
2017-07-31T13:00:13.541Z,2.60
2017-07-31T13:02:41.217Z,3.53
2017-07-31T13:05:08.875Z,2.67
2017-07-31T13:07:36.597Z,1.60
2017-07-31T13:10:04.252Z,2.60
2017-07-31T13:12:31.988Z,1.70
2017-07-31T13:14:59.680Z,3.90
2017-07-31T13:17:27.398Z,2.87
2017-07-31T13:19:55.068Z,2.00
2017-07-31T13:22:22.809Z,1.77
2017-07-31T13:24:50.474Z,1.93
2017-07-31T13:27:18.159Z,5.60
2017-07-31T13:29:45.877Z,1.40
2017-07-31T13:32:13.573Z,1.67
2017-07-31T13:34:41.295Z,2.30
2017-07-31T13:37:09.026Z,1.90
2017-07-31T13:39:36.771Z,1.80
2017-07-31T13:42:04.454Z,1.97
2017-07-31T13:44:32.161Z,1.53
2017-07-31T13:46:59.851Z,1.60
2017-07-31T13:49:27.493Z,1.80
2017-07-31T13:51:55.211Z,1.57
2017-07-31T13:54:22.870Z,1.80
2017-07-31T13:56:50.560Z,1.57
2017-07-31T13:59:18.203Z,1.60
2017-07-31T14:01:45.903Z,1.80
2017-07-31T14:04:13.573Z,1.60
2017-07-31T14:06:41.316Z,2.77
2017-07-31T14:09:08.989Z,2.10
2017-07-31T14:11:36.628Z,2.50
2017-07-31T14:14:04.322Z,2.30
2017-07-31T14:16:31.983Z,1.60
2017-07-31T14:18:59.663Z,1.80
2017-07-31T14:21:27.357Z,1.50
2017-07-31T14:23:54.997Z,6.50
2017-07-31T14:26:22.658Z,1.73
2017-07-31T14:28:50.347Z,2.13
2017-07-31T14:31:17.983Z,3.00
2017-07-31T14:33:45.647Z,1.80
2017-07-31T14:36:13.370Z,1.63
2017-07-31T14:38:41.094Z,1.80
2017-07-31T14:41:08.810Z,1.70
2017-07-31T14:43:36.473Z,1.90
2017-07-31T14:46:04.260Z,2.17
2017-07-31T14:48:31.908Z,2.80
2017-07-31T14:50:59.604Z,3.20
2017-07-31T14:53:27.267Z,2.13
2017-07-31T14:55:54.925Z,1.90
2017-07-31T14:58:22.638Z,2.43
2017-07-31T15:00:50.273Z,4.87
2017-07-31T15:03:17.990Z,2.67
2017-07-31T15:05:45.648Z,1.90
2017-07-31T15:08:13.367Z,2.10
2017-07-31T15:10:41.045Z,1.77
2017-07-31T15:13:08.765Z,2.20
2017-07-31T15:15:36.422Z,4.70
2017-07-31T15:18:04.131Z,2.40
2017-07-31T15:20:31.789Z,2.20
2017-07-31T15:22:59.444Z,2.80
2017-07-31T15:25:27.156Z,3.00
2017-07-31T15:27:54.825Z,5.10
2017-07-31T15:30:22.566Z,1.60
2017-07-31T15:32:50.258Z,3.90
2017-07-31T15:35:17.956Z,2.20
2017-07-31T15:37:45.635Z,2.40
2017-07-31T15:40:13.366Z,2.17
2017-07-31T15:42:41.036Z,3.90
2017-07-31T15:45:08.719Z,2.23
2017-07-31T15:47:36.436Z,2.33
2017-07-31T15:50:04.100Z,5.47
2017-07-31T15:52:31.796Z,2.40
2017-07-31T15:54:59.451Z,3.17
2017-07-31T15:57:27.152Z,5.50
2017-07-31T15:59:54.806Z,3.53
2017-07-31T16:02:22.524Z,3.50
2017-07-31T16:04:50.201Z,2.83
2017-07-31T16:07:17.861Z,2.27
2017-07-31T16:09:45.584Z,2.27
2017-07-31T16:12:13.234Z,5.10
2017-07-31T16:14:40.920Z,2.53
2017-07-31T16:17:08.568Z,3.27
2017-07-31T16:19:36.251Z,4.10
2017-07-31T16:22:03.893Z,3.00
2017-07-31T16:24:31.578Z,2.30
2017-07-31T16:26:59.237Z,2.30
2017-07-31T16:29:26.891Z,3.07
2017-07-31T16:31:54.595Z,2.30
2017-07-31T16:34:22.255Z,2.17
2017-07-31T16:36:49.971Z,2.57
2017-07-31T16:39:17.738Z,2.80
2017-07-31T16:41:45.507Z,2.23
2017-07-31T16:44:13.189Z,3.20
2017-07-31T16:46:40.910Z,2.03
2017-07-31T16:49:09.527Z,1.87
2017-07-31T16:51:37.230Z,4.10
2017-07-31T16:54:04.890Z,4.77
2017-07-31T16:56:32.597Z,3.67
2017-07-31T16:59:00.286Z,2.93
2017-07-31T17:01:27.940Z,2.80
2017-07-31T17:03:55.647Z,4.03
2017-07-31T17:06:23.331Z,2.40
2017-07-31T17:08:51.028Z,3.27
2017-07-31T17:11:18.685Z,2.63
2017-07-31T17:13:46.389Z,2.80
2017-07-31T17:16:14.048Z,2.60
2017-07-31T17:18:41.778Z,2.93
2017-07-31T17:21:09.460Z,3.40
2017-07-31T17:23:37.110Z,2.60
2017-07-31T17:26:04.840Z,3.63
2017-07-31T17:28:32.494Z,7.10
2017-07-31T17:31:00.206Z,5.97
2017-07-31T17:33:27.900Z,2.73
2017-07-31T17:35:55.610Z,2.87
2017-07-31T17:38:23.315Z,2.67
2017-07-31T17:40:51.055Z,6.93
2017-07-31T17:43:18.726Z,4.83
2017-07-31T17:45:46.365Z,4.40
2017-07-31T17:48:14.082Z,3.30
2017-07-31T17:50:41.746Z,5.57
2017-07-31T17:53:09.455Z,2.70
2017-07-31T17:55:37.171Z,4.37
2017-07-31T17:58:04.871Z,3.80
2017-07-31T18:00:32.504Z,2.87
2017-07-31T18:03:00.156Z,3.00
2017-07-31T18:05:27.845Z,4.83
2017-07-31T18:07:55.497Z,4.37
2017-07-31T18:10:23.217Z,2.43
2017-07-31T18:12:50.903Z,5.80
2017-07-31T18:15:18.587Z,3.40
2017-07-31T18:17:46.231Z,2.40
2017-07-31T18:20:13.946Z,3.80
2017-07-31T18:22:41.598Z,2.57
2017-07-31T18:25:09.258Z,4.00
2017-07-31T18:27:36.966Z,4.97
2017-07-31T18:30:04.643Z,3.10
2017-07-31T18:32:32.358Z,3.30
2017-07-31T18:35:00.035Z,4.63
2017-07-31T18:37:27.764Z,3.30
2017-07-31T18:39:55.436Z,5.40
2017-07-31T18:42:23.151Z,3.40
2017-07-31T18:44:50.827Z,3.37
2017-07-31T18:47:18.478Z,3.20
2017-07-31T18:49:46.181Z,3.30
2017-07-31T18:52:13.831Z,5.70
2017-07-31T18:54:41.513Z,6.07
2017-07-31T18:57:09.151Z,3.40
2017-07-31T18:59:36.848Z,3.40
2017-07-31T19:02:04.507Z,3.53
2017-07-31T19:04:32.231Z,6.63
2017-07-31T19:06:59.915Z,6.07
2017-07-31T19:09:27.552Z,8.13
2017-07-31T19:11:55.270Z,4.00
2017-07-31T19:14:22.921Z,4.13
2017-07-31T19:16:50.640Z,8.00
2017-07-31T19:19:18.304Z,5.03
2017-07-31T19:21:46.012Z,4.53
2017-07-31T19:24:13.672Z,4.77
2017-07-31T19:26:41.399Z,10.67
2017-07-31T19:29:09.066Z,10.60
2017-07-31T19:31:36.723Z,5.30
2017-07-31T19:34:04.439Z,6.20
2017-07-31T19:36:32.112Z,8.30
2017-07-31T19:38:59.879Z,6.13
2017-07-31T19:41:27.533Z,5.13
2017-07-31T19:43:55.262Z,4.90
2017-07-31T19:46:22.942Z,12.60
2017-07-31T19:48:50.648Z,4.93
2017-07-31T19:51:18.310Z,9.57
2017-07-31T19:53:45.983Z,4.73
2017-07-31T19:56:13.718Z,10.67
2017-07-31T19:58:41.396Z,5.10
2017-07-31T20:01:09.120Z,8.10
2017-07-31T20:03:38.063Z,4.47
2017-07-31T20:06:05.903Z,10.33
2017-07-31T20:08:33.559Z,4.60
2017-07-31T20:11:01.189Z,7.90
2017-07-31T20:13:28.859Z,6.73
2017-07-31T20:15:56.532Z,10.60
2017-07-31T20:18:24.296Z,4.93
2017-07-31T20:20:51.883Z,5.00
2017-07-31T20:23:19.597Z,4.70
2017-07-31T20:25:47.302Z,6.53
2017-07-31T20:28:14.934Z,4.60
2017-07-31T20:30:42.591Z,7.40
2017-07-31T20:33:10.356Z,4.37
2017-07-31T20:35:38.026Z,4.23
2017-07-31T20:38:05.640Z,4.27
2017-07-31T20:40:56.274Z,4.47
2017-07-31T20:43:26.994Z,4.67
2017-07-31T20:45:54.635Z,6.17
2017-07-31T20:48:22.244Z,6.17
2017-07-31T20:50:49.877Z,4.57
2017-07-31T20:53:17.515Z,4.87
2017-07-31T20:55:45.420Z,6.97
2017-07-31T20:58:45.796Z,4.63
2017-07-31T21:01:13.421Z,6.83
2017-07-31T21:03:41.017Z,8.00
2017-07-31T21:06:08.644Z,5.77
2017-07-31T21:08:36.236Z,6.70
2017-07-31T21:11:03.888Z,22.87
2017-07-31T21:13:31.471Z,5.73
2017-07-31T21:15:59.071Z,5.93
2017-07-31T21:18:26.737Z,6.57
2017-07-31T21:20:54.308Z,5.50
2017-07-31T21:23:21.928Z,6.20
2017-07-31T21:25:49.536Z,10.47
2017-07-31T21:28:17.182Z,6.60
2017-07-31T21:30:44.764Z,4.90
2017-07-31T21:33:12.346Z,5.60
2017-07-31T21:35:39.988Z,6.93
2017-07-31T21:38:07.569Z,6.80
2017-07-31T21:40:44.294Z,4.70
2017-07-31T21:43:18.299Z,6.00
2017-07-31T21:48:36.446Z,4.80
2017-07-31T21:51:05.917Z,5.00
2017-07-31T21:53:38.878Z,5.20
2017-07-31T21:56:08.027Z,4.47
2017-07-31T21:58:35.740Z,10.03
2017-07-31T22:01:03.418Z,5.33
2017-07-31T22:03:31.067Z,6.00
2017-07-31T22:05:58.643Z,5.37
2017-07-31T22:08:26.331Z,8.80
2017-07-31T22:10:53.992Z,5.83
2017-07-31T22:13:21.641Z,6.60
2017-07-31T22:15:49.233Z,5.47
2017-07-31T22:18:16.970Z,6.90
2017-07-31T22:20:44.633Z,8.47
2017-07-31T22:23:12.338Z,5.40
2017-07-31T22:25:39.899Z,4.90
2017-07-31T22:28:07.641Z,5.60
2017-07-31T22:30:35.226Z,6.07
2017-07-31T22:33:02.877Z,7.53
2017-07-31T22:35:30.567Z,6.60
2017-07-31T22:37:58.260Z,9.20
2017-07-31T22:40:25.973Z,7.03
2017-07-31T22:42:53.637Z,9.53
2017-07-31T22:45:21.354Z,6.43
2017-07-31T22:47:49.013Z,8.10
2017-07-31T22:50:16.728Z,5.77
2017-07-31T22:52:44.401Z,7.90
2017-07-31T22:55:12.116Z,9.63
2017-07-31T22:57:39.775Z,12.17
2017-07-31T23:00:07.464Z,13.73
2017-07-31T23:02:35.193Z,6.57
2017-07-31T23:05:02.871Z,11.40
2017-07-31T23:07:30.571Z,7.43
2017-07-31T23:09:58.161Z,9.00
2017-07-31T23:12:25.844Z,8.97
2017-07-31T23:14:53.529Z,8.70
2017-07-31T23:17:21.226Z,5.93
2017-07-31T23:19:48.879Z,4.80
2017-07-31T23:22:16.587Z,5.70
2017-07-31T23:24:44.161Z,5.90
2017-07-31T23:27:11.732Z,6.90
2017-07-31T23:29:39.347Z,6.37
2017-07-31T23:32:07.036Z,7.90
2017-07-31T23:34:34.720Z,7.53
2017-07-31T23:37:02.371Z,6.80
2017-07-31T23:39:30.100Z,6.70
2017-07-31T23:41:57.748Z,6.23
2017-07-31T23:44:25.456Z,5.80
2017-07-31T23:46:53.117Z,6.40
2017-07-31T23:49:20.862Z,6.40
2017-07-31T23:51:48.503Z,9.33
2017-07-31T23:54:16.150Z,6.00
2017-07-31T23:56:43.834Z,8.37
2017-07-31T23:59:11.508Z,6.93
